sensor_id;sensor_type;location;lat;lon;timestamp;temperature;humidity
34815;DHT22;21030;53.912;15.214;2023-05-10T00:01:36;31.10;20.10
34815;DHT22;21030;53.912;15.214;2023-05-10T00:04:03;31.90;20.10
34815;DHT22;21030;53.912;15.214;2023-05-10T00:06:30;32.20;19.60
34815;DHT22;21030;53.912;15.214;2023-05-10T00:08:58;32.10;19.70
34815;DHT22;21030;53.912;15.214;2023-05-10T00:11:25;32.50;19.60
34815;DHT22;21030;53.912;15.214;2023-05-10T00:13:52;32.80;19.30
34815;DHT22;21030;53.912;15.214;2023-05-10T00:16:19;32.50;19.30
34815;DHT22;21030;53.912;15.214;2023-05-10T00:18:46;31.90;19.40
34815;DHT22;21030;53.912;15.214;2023-05-10T00:21:13;32.20;19.70
34815;DHT22;21030;53.912;15.214;2023-05-10T00:23:40;31.80;19.60
34815;DHT22;21030;53.912;15.214;2023-05-10T00:26:07;31.70;20.00
34815;DHT22;21030;53.912;15.214;2023-05-10T00:28:34;32.30;19.90
34815;DHT22;21030;53.912;15.214;2023-05-10T00:31:01;31.60;19.80
34815;DHT22;21030;53.912;15.214;2023-05-10T00:33:29;31.60;20.10
34815;DHT22;21030;53.912;15.214;2023-05-10T00:35:56;31.40;20.20
34815;DHT22;21030;53.912;15.214;2023-05-10T00:38:23;32.00;19.90
34815;DHT22;21030;53.912;15.214;2023-05-10T00:40:50;30.80;20.10
34815;DHT22;21030;53.912;15.214;2023-05-10T00:43:17;31.40;20.20
34815;DHT22;21030;53.912;15.214;2023-05-10T00:45:44;30.90;20.40
34815;DHT22;21030;53.912;15.214;2023-05-10T00:48:11;29.60;20.40
34815;DHT22;21030;53.912;15.214;2023-05-10T00:50:39;30.10;20.60
34815;DHT22;21030;53.912;15.214;2023-05-10T00:53:07;29.70;20.90
34815;DHT22;21030;53.912;15.214;2023-05-10T00:55:35;31.00;21.00
34815;DHT22;21030;53.912;15.214;2023-05-10T00:58:03;30.00;20.20
34815;DHT22;21030;53.912;15.214;2023-05-10T01:00:32;30.80;20.90
34815;DHT22;21030;53.912;15.214;2023-05-10T01:03:00;29.90;20.80
34815;DHT22;21030;53.912;15.214;2023-05-10T01:05:28;30.80;20.90
34815;DHT22;21030;53.912;15.214;2023-05-10T01:07:56;30.40;20.50
34815;DHT22;21030;53.912;15.214;2023-05-10T01:10:23;30.20;20.70
34815;DHT22;21030;53.912;15.214;2023-05-10T01:12:51;30.20;21.10
34815;DHT22;21030;53.912;15.214;2023-05-10T01:15:18;30.00;21.00
34815;DHT22;21030;53.912;15.214;2023-05-10T01:17:47;30.50;20.90
34815;DHT22;21030;53.912;15.214;2023-05-10T01:20:15;29.60;21.00
34815;DHT22;21030;53.912;15.214;2023-05-10T01:34:54;29.60;21.50
34815;DHT22;21030;53.912;15.214;2023-05-10T01:37:29;30.00;21.40
34815;DHT22;21030;53.912;15.214;2023-05-10T01:40:10;29.60;21.60
34815;DHT22;21030;53.912;15.214;2023-05-10T01:42:53;29.60;21.20
34815;DHT22;21030;53.912;15.214;2023-05-10T01:45:31;29.40;21.70
34815;DHT22;21030;53.912;15.214;2023-05-10T01:50:32;29.60;21.40
34815;DHT22;21030;53.912;15.214;2023-05-10T01:53:02;29.70;21.50
34815;DHT22;21030;53.912;15.214;2023-05-10T01:55:32;29.20;21.40
34815;DHT22;21030;53.912;15.214;2023-05-10T01:58:09;28.60;21.40
34815;DHT22;21030;53.912;15.214;2023-05-10T02:00:37;29.10;21.70
34815;DHT22;21030;53.912;15.214;2023-05-10T02:03:07;28.90;21.90
34815;DHT22;21030;53.912;15.214;2023-05-10T02:05:36;29.70;21.60
34815;DHT22;21030;53.912;15.214;2023-05-10T02:08:06;29.20;21.60
34815;DHT22;21030;53.912;15.214;2023-05-10T02:10:37;28.90;21.70
34815;DHT22;21030;53.912;15.214;2023-05-10T02:13:07;28.60;22.10
34815;DHT22;21030;53.912;15.214;2023-05-10T02:15:35;29.20;21.90
34815;DHT22;21030;53.912;15.214;2023-05-10T02:18:04;28.60;21.80
34815;DHT22;21030;53.912;15.214;2023-05-10T02:20:33;28.40;22.00
34815;DHT22;21030;53.912;15.214;2023-05-10T02:23:02;28.80;22.20
34815;DHT22;21030;53.912;15.214;2023-05-10T02:25:31;28.00;22.20
34815;DHT22;21030;53.912;15.214;2023-05-10T02:28:01;28.40;22.40
34815;DHT22;21030;53.912;15.214;2023-05-10T02:30:31;27.80;21.90
34815;DHT22;21030;53.912;15.214;2023-05-10T02:32:59;28.60;22.10
34815;DHT22;21030;53.912;15.214;2023-05-10T02:35:27;28.70;21.90
34815;DHT22;21030;53.912;15.214;2023-05-10T02:37:55;28.70;22.10
34815;DHT22;21030;53.912;15.214;2023-05-10T02:40:24;28.30;22.50
34815;DHT22;21030;53.912;15.214;2023-05-10T02:42:56;28.50;22.30
34815;DHT22;21030;53.912;15.214;2023-05-10T02:45:26;28.20;22.40
34815;DHT22;21030;53.912;15.214;2023-05-10T02:47:55;28.50;22.70
34815;DHT22;21030;53.912;15.214;2023-05-10T02:50:28;28.40;22.00
34815;DHT22;21030;53.912;15.214;2023-05-10T02:53:00;27.70;22.50
34815;DHT22;21030;53.912;15.214;2023-05-10T02:55:35;28.60;22.60
34815;DHT22;21030;53.912;15.214;2023-05-10T02:58:04;28.60;22.10
34815;DHT22;21030;53.912;15.214;2023-05-10T03:00:31;28.10;22.20
34815;DHT22;21030;53.912;15.214;2023-05-10T03:02:59;28.50;22.00
34815;DHT22;21030;53.912;15.214;2023-05-10T03:05:26;28.60;22.00
34815;DHT22;21030;53.912;15.214;2023-05-10T03:07:54;28.00;21.80
34815;DHT22;21030;53.912;15.214;2023-05-10T03:10:27;28.50;22.30
34815;DHT22;21030;53.912;15.214;2023-05-10T03:16:06;28.60;22.00
34815;DHT22;21030;53.912;15.214;2023-05-10T03:18:50;28.40;21.90
34815;DHT22;21030;53.912;15.214;2023-05-10T03:21:22;28.70;22.10
34815;DHT22;21030;53.912;15.214;2023-05-10T03:23:59;28.80;22.20
34815;DHT22;21030;53.912;15.214;2023-05-10T03:26:29;28.50;22.10
34815;DHT22;21030;53.912;15.214;2023-05-10T03:28:57;28.70;22.10
34815;DHT22;21030;53.912;15.214;2023-05-10T03:31:25;28.50;21.80
34815;DHT22;21030;53.912;15.214;2023-05-10T03:33:53;29.30;21.80
34815;DHT22;21030;53.912;15.214;2023-05-10T03:36:20;29.10;21.40
34815;DHT22;21030;53.912;15.214;2023-05-10T03:38:47;29.40;21.60
34815;DHT22;21030;53.912;15.214;2023-05-10T03:41:16;29.60;21.40
34815;DHT22;21030;53.912;15.214;2023-05-10T03:43:43;29.40;22.10
34815;DHT22;21030;53.912;15.214;2023-05-10T03:46:10;29.30;21.60
34815;DHT22;21030;53.912;15.214;2023-05-10T03:48:38;29.60;21.50
34815;DHT22;21030;53.912;15.214;2023-05-10T03:51:05;29.00;21.60
34815;DHT22;21030;53.912;15.214;2023-05-10T03:53:32;29.40;22.00
34815;DHT22;21030;53.912;15.214;2023-05-10T03:55:59;29.10;21.90
34815;DHT22;21030;53.912;15.214;2023-05-10T03:58:26;29.10;21.60
34815;DHT22;21030;53.912;15.214;2023-05-10T04:00:53;28.80;21.50
34815;DHT22;21030;53.912;15.214;2023-05-10T04:03:20;28.60;21.80
34815;DHT22;21030;53.912;15.214;2023-05-10T04:05:48;28.30;21.80
34815;DHT22;21030;53.912;15.214;2023-05-10T04:08:15;28.00;21.90
34815;DHT22;21030;53.912;15.214;2023-05-10T04:10:43;27.60;22.30
34815;DHT22;21030;53.912;15.214;2023-05-10T04:13:10;27.70;23.20
34815;DHT22;21030;53.912;15.214;2023-05-10T04:15:38;28.00;22.50
34815;DHT22;21030;53.912;15.214;2023-05-10T04:18:04;27.50;23.10
34815;DHT22;21030;53.912;15.214;2023-05-10T04:20:34;28.10;22.60
34815;DHT22;21030;53.912;15.214;2023-05-10T04:23:01;27.10;22.50
34815;DHT22;21030;53.912;15.214;2023-05-10T04:25:28;28.20;22.80
34815;DHT22;21030;53.912;15.214;2023-05-10T04:27:55;28.60;22.40
34815;DHT22;21030;53.912;15.214;2023-05-10T04:30:22;29.00;21.80
34815;DHT22;21030;53.912;15.214;2023-05-10T04:32:49;29.10;21.80
34815;DHT22;21030;53.912;15.214;2023-05-10T04:35:16;30.00;21.80
34815;DHT22;21030;53.912;15.214;2023-05-10T04:37:44;30.00;21.20
34815;DHT22;21030;53.912;15.214;2023-05-10T04:40:11;28.90;21.60
34815;DHT22;21030;53.912;15.214;2023-05-10T04:42:40;29.00;21.80
34815;DHT22;21030;53.912;15.214;2023-05-10T04:45:08;29.30;21.60
34815;DHT22;21030;53.912;15.214;2023-05-10T04:47:36;28.90;21.30
34815;DHT22;21030;53.912;15.214;2023-05-10T04:50:06;28.10;21.90
34815;DHT22;21030;53.912;15.214;2023-05-10T04:52:34;28.20;22.20
34815;DHT22;21030;53.912;15.214;2023-05-10T04:55:01;28.60;22.10
34815;DHT22;21030;53.912;15.214;2023-05-10T04:57:28;28.20;22.50
34815;DHT22;21030;53.912;15.214;2023-05-10T04:59:55;28.20;22.30
34815;DHT22;21030;53.912;15.214;2023-05-10T05:02:22;27.80;22.10
34815;DHT22;21030;53.912;15.214;2023-05-10T05:04:50;27.60;22.30
34815;DHT22;21030;53.912;15.214;2023-05-10T05:07:17;28.40;22.60
34815;DHT22;21030;53.912;15.214;2023-05-10T05:09:44;28.00;22.30
34815;DHT22;21030;53.912;15.214;2023-05-10T05:12:11;29.20;22.40
34815;DHT22;21030;53.912;15.214;2023-05-10T05:14:41;28.90;21.70
34815;DHT22;21030;53.912;15.214;2023-05-10T05:17:08;29.50;21.80
34815;DHT22;21030;53.912;15.214;2023-05-10T05:19:35;29.80;21.60
34815;DHT22;21030;53.912;15.214;2023-05-10T05:22:02;29.80;21.50
34815;DHT22;21030;53.912;15.214;2023-05-10T05:24:29;29.50;21.60
34815;DHT22;21030;53.912;15.214;2023-05-10T05:27:01;29.90;21.40
34815;DHT22;21030;53.912;15.214;2023-05-10T05:29:28;29.90;21.60
34815;DHT22;21030;53.912;15.214;2023-05-10T05:31:55;29.20;21.60
34815;DHT22;21030;53.912;15.214;2023-05-10T05:34:22;29.30;21.60
34815;DHT22;21030;53.912;15.214;2023-05-10T05:36:50;29.50;21.80
34815;DHT22;21030;53.912;15.214;2023-05-10T05:39:18;29.60;21.90
34815;DHT22;21030;53.912;15.214;2023-05-10T05:41:45;30.10;22.00
34815;DHT22;21030;53.912;15.214;2023-05-10T05:44:13;30.10;21.50
34815;DHT22;21030;53.912;15.214;2023-05-10T05:46:40;29.90;21.20
34815;DHT22;21030;53.912;15.214;2023-05-10T05:49:07;30.10;21.70
34815;DHT22;21030;53.912;15.214;2023-05-10T05:51:34;29.90;21.90
34815;DHT22;21030;53.912;15.214;2023-05-10T05:54:02;29.30;21.60
34815;DHT22;21030;53.912;15.214;2023-05-10T05:56:31;29.70;22.00
34815;DHT22;21030;53.912;15.214;2023-05-10T05:58:58;30.90;22.00
34815;DHT22;21030;53.912;15.214;2023-05-10T06:01:25;31.10;21.20
34815;DHT22;21030;53.912;15.214;2023-05-10T06:03:52;30.90;21.10
34815;DHT22;21030;53.912;15.214;2023-05-10T06:06:20;31.10;21.50
34815;DHT22;21030;53.912;15.214;2023-05-10T06:08:48;30.70;20.90
34815;DHT22;21030;53.912;15.214;2023-05-10T06:11:15;31.00;21.20
34815;DHT22;21030;53.912;15.214;2023-05-10T06:13:42;31.20;21.00
34815;DHT22;21030;53.912;15.214;2023-05-10T06:16:09;32.10;21.00
34815;DHT22;21030;53.912;15.214;2023-05-10T06:18:36;32.00;20.20
34815;DHT22;21030;53.912;15.214;2023-05-10T06:21:04;32.70;20.30
34815;DHT22;21030;53.912;15.214;2023-05-10T06:23:31;32.90;19.90
34815;DHT22;21030;53.912;15.214;2023-05-10T06:25:58;32.30;20.00
34815;DHT22;21030;53.912;15.214;2023-05-10T06:28:25;30.60;20.30
34815;DHT22;21030;53.912;15.214;2023-05-10T06:30:52;30.20;21.00
34815;DHT22;21030;53.912;15.214;2023-05-10T06:33:19;31.90;21.30
34815;DHT22;21030;53.912;15.214;2023-05-10T06:35:46;30.80;20.80
34815;DHT22;21030;53.912;15.214;2023-05-10T06:38:13;31.00;21.10
34815;DHT22;21030;53.912;15.214;2023-05-10T06:40:45;31.00;20.90
34815;DHT22;21030;53.912;15.214;2023-05-10T06:43:12;31.50;21.00
34815;DHT22;21030;53.912;15.214;2023-05-10T06:45:39;31.80;20.80
34815;DHT22;21030;53.912;15.214;2023-05-10T06:48:06;31.50;20.10
34815;DHT22;21030;53.912;15.214;2023-05-10T06:50:34;30.50;20.80
34815;DHT22;21030;53.912;15.214;2023-05-10T06:53:01;32.10;20.90
34815;DHT22;21030;53.912;15.214;2023-05-10T06:55:31;32.90;20.30
34815;DHT22;21030;53.912;15.214;2023-05-10T06:57:58;32.80;20.10
34815;DHT22;21030;53.912;15.214;2023-05-10T07:00:26;34.70;19.60
34815;DHT22;21030;53.912;15.214;2023-05-10T07:02:53;34.00;19.30
34815;DHT22;21030;53.912;15.214;2023-05-10T07:05:21;33.30;19.30
34815;DHT22;21030;53.912;15.214;2023-05-10T07:07:49;34.50;19.30
34815;DHT22;21030;53.912;15.214;2023-05-10T07:10:16;34.20;19.10
34815;DHT22;21030;53.912;15.214;2023-05-10T07:12:44;35.20;18.90
34815;DHT22;21030;53.912;15.214;2023-05-10T07:15:11;35.40;18.90
34815;DHT22;21030;53.912;15.214;2023-05-10T07:17:39;35.30;18.70
34815;DHT22;21030;53.912;15.214;2023-05-10T07:20:09;36.00;18.80
34815;DHT22;21030;53.912;15.214;2023-05-10T07:22:36;35.50;18.60
34815;DHT22;21030;53.912;15.214;2023-05-10T07:25:03;35.20;18.70
34815;DHT22;21030;53.912;15.214;2023-05-10T07:27:30;35.50;18.80
34815;DHT22;21030;53.912;15.214;2023-05-10T07:29:57;35.50;18.40
34815;DHT22;21030;53.912;15.214;2023-05-10T07:32:25;35.30;18.60
34815;DHT22;21030;53.912;15.214;2023-05-10T07:34:52;35.00;18.50
34815;DHT22;21030;53.912;15.214;2023-05-10T07:37:19;34.60;18.50
34815;DHT22;21030;53.912;15.214;2023-05-10T07:39:49;34.70;18.60
34815;DHT22;21030;53.912;15.214;2023-05-10T07:42:15;34.80;18.90
34815;DHT22;21030;53.912;15.214;2023-05-10T07:44:43;34.80;18.90
34815;DHT22;21030;53.912;15.214;2023-05-10T07:47:10;34.90;18.80
34815;DHT22;21030;53.912;15.214;2023-05-10T07:49:37;34.60;18.60
34815;DHT22;21030;53.912;15.214;2023-05-10T07:52:04;35.90;19.00
34815;DHT22;21030;53.912;15.214;2023-05-10T07:54:32;35.30;18.50
34815;DHT22;21030;53.912;15.214;2023-05-10T07:56:59;36.10;18.40
34815;DHT22;21030;53.912;15.214;2023-05-10T07:59:27;37.50;18.10
34815;DHT22;21030;53.912;15.214;2023-05-10T08:01:54;38.20;17.80
34815;DHT22;21030;53.912;15.214;2023-05-10T08:04:22;37.90;17.30
34815;DHT22;21030;53.912;15.214;2023-05-10T08:06:49;36.90;17.30
34815;DHT22;21030;53.912;15.214;2023-05-10T08:09:17;37.40;17.70
34815;DHT22;21030;53.912;15.214;2023-05-10T08:11:44;37.30;17.60
34815;DHT22;21030;53.912;15.214;2023-05-10T08:14:11;36.20;17.50
34815;DHT22;21030;53.912;15.214;2023-05-10T08:16:38;37.00;17.80
34815;DHT22;21030;53.912;15.214;2023-05-10T08:19:05;36.50;17.60
34815;DHT22;21030;53.912;15.214;2023-05-10T08:21:33;36.70;18.20
34815;DHT22;21030;53.912;15.214;2023-05-10T08:24:01;36.60;18.30
34815;DHT22;21030;53.912;15.214;2023-05-10T08:26:28;37.50;18.20
34815;DHT22;21030;53.912;15.214;2023-05-10T08:28:55;37.30;17.60
34815;DHT22;21030;53.912;15.214;2023-05-10T08:31:22;37.60;17.70
34815;DHT22;21030;53.912;15.214;2023-05-10T08:33:51;37.00;17.60
34815;DHT22;21030;53.912;15.214;2023-05-10T08:36:19;36.80;17.50
34815;DHT22;21030;53.912;15.214;2023-05-10T08:38:50;35.90;17.80
34815;DHT22;21030;53.912;15.214;2023-05-10T08:41:22;36.00;17.90
34815;DHT22;21030;53.912;15.214;2023-05-10T08:43:52;35.90;17.60
34815;DHT22;21030;53.912;15.214;2023-05-10T08:46:21;36.70;18.10
34815;DHT22;21030;53.912;15.214;2023-05-10T08:48:50;35.50;16.90
34815;DHT22;21030;53.912;15.214;2023-05-10T08:51:24;35.70;18.00
34815;DHT22;21030;53.912;15.214;2023-05-10T08:53:53;34.90;18.00
34815;DHT22;21030;53.912;15.214;2023-05-10T08:56:21;34.60;18.60
34815;DHT22;21030;53.912;15.214;2023-05-10T08:58:48;34.50;18.40
34815;DHT22;21030;53.912;15.214;2023-05-10T09:01:17;34.60;18.20
34815;DHT22;21030;53.912;15.214;2023-05-10T09:03:46;35.10;18.10
34815;DHT22;21030;53.912;15.214;2023-05-10T09:06:14;35.30;17.90
34815;DHT22;21030;53.912;15.214;2023-05-10T09:08:42;35.90;17.70
34815;DHT22;21030;53.912;15.214;2023-05-10T09:11:11;36.10;17.60
34815;DHT22;21030;53.912;15.214;2023-05-10T09:13:38;35.40;17.50
34815;DHT22;21030;53.912;15.214;2023-05-10T09:16:06;35.60;18.00
34815;DHT22;21030;53.912;15.214;2023-05-10T09:18:46;36.20;17.80
34815;DHT22;21030;53.912;15.214;2023-05-10T09:21:13;36.70;17.50
34815;DHT22;21030;53.912;15.214;2023-05-10T09:23:45;36.80;17.30
34815;DHT22;21030;53.912;15.214;2023-05-10T09:26:14;36.50;17.10
34815;DHT22;21030;53.912;15.214;2023-05-10T09:28:52;36.60;17.30
34815;DHT22;21030;53.912;15.214;2023-05-10T09:31:20;35.40;17.30
34815;DHT22;21030;53.912;15.214;2023-05-10T09:33:48;35.90;17.50
34815;DHT22;21030;53.912;15.214;2023-05-10T09:36:16;35.50;17.60
34815;DHT22;21030;53.912;15.214;2023-05-10T09:38:51;36.40;17.70
34815;DHT22;21030;53.912;15.214;2023-05-10T09:41:23;35.70;17.30
34815;DHT22;21030;53.912;15.214;2023-05-10T09:43:55;36.40;17.30
34815;DHT22;21030;53.912;15.214;2023-05-10T09:46:22;36.80;17.00
34815;DHT22;21030;53.912;15.214;2023-05-10T09:48:51;35.30;16.80
34815;DHT22;21030;53.912;15.214;2023-05-10T09:51:22;34.70;17.40
34815;DHT22;21030;53.912;15.214;2023-05-10T09:54:13;35.00;17.40
34815;DHT22;21030;53.912;15.214;2023-05-10T09:56:41;35.50;17.60
34815;DHT22;21030;53.912;15.214;2023-05-10T09:59:10;35.60;17.70
34815;DHT22;21030;53.912;15.214;2023-05-10T10:01:38;34.90;17.60
34815;DHT22;21030;53.912;15.214;2023-05-10T10:04:08;34.80;17.80
34815;DHT22;21030;53.912;15.214;2023-05-10T10:06:37;34.70;18.10
34815;DHT22;21030;53.912;15.214;2023-05-10T10:09:06;35.50;18.10
34815;DHT22;21030;53.912;15.214;2023-05-10T10:11:37;35.40;18.10
34815;DHT22;21030;53.912;15.214;2023-05-10T10:14:05;35.70;17.80
34815;DHT22;21030;53.912;15.214;2023-05-10T10:16:33;36.50;17.50
34815;DHT22;21030;53.912;15.214;2023-05-10T10:19:00;36.10;17.20
34815;DHT22;21030;53.912;15.214;2023-05-10T10:21:28;35.80;17.20
34815;DHT22;21030;53.912;15.214;2023-05-10T10:23:55;36.10;17.50
34815;DHT22;21030;53.912;15.214;2023-05-10T10:26:23;36.40;17.80
34815;DHT22;21030;53.912;15.214;2023-05-10T10:29:06;36.40;17.50
34815;DHT22;21030;53.912;15.214;2023-05-10T10:31:40;35.50;17.60
34815;DHT22;21030;53.912;15.214;2023-05-10T10:34:09;35.90;17.70
34815;DHT22;21030;53.912;15.214;2023-05-10T10:36:44;35.40;18.40
34815;DHT22;21030;53.912;15.214;2023-05-10T10:39:12;35.90;18.00
34815;DHT22;21030;53.912;15.214;2023-05-10T10:41:48;36.50;18.00
34815;DHT22;21030;53.912;15.214;2023-05-10T10:49:50;37.30;17.40
34815;DHT22;21030;53.912;15.214;2023-05-10T10:57:31;38.10;17.00
34815;DHT22;21030;53.912;15.214;2023-05-10T11:00:31;37.90;16.50
34815;DHT22;21030;53.912;15.214;2023-05-10T11:03:11;37.20;16.30
34815;DHT22;21030;53.912;15.214;2023-05-10T11:05:49;36.70;16.60
34815;DHT22;21030;53.912;15.214;2023-05-10T11:08:19;35.70;17.20
34815;DHT22;21030;53.912;15.214;2023-05-10T11:11:14;36.20;16.70
34815;DHT22;21030;53.912;15.214;2023-05-10T11:13:46;36.90;17.00
34815;DHT22;21030;53.912;15.214;2023-05-10T11:16:21;37.00;16.50
34815;DHT22;21030;53.912;15.214;2023-05-10T11:21:29;36.90;16.70
34815;DHT22;21030;53.912;15.214;2023-05-10T11:23:59;36.70;16.30
34815;DHT22;21030;53.912;15.214;2023-05-10T11:26:31;36.00;16.50
34815;DHT22;21030;53.912;15.214;2023-05-10T11:28:59;36.80;17.00
34815;DHT22;21030;53.912;15.214;2023-05-10T11:31:29;37.20;16.80
34815;DHT22;21030;53.912;15.214;2023-05-10T11:33:58;37.90;16.80
34815;DHT22;21030;53.912;15.214;2023-05-10T11:36:28;36.60;16.60
34815;DHT22;21030;53.912;15.214;2023-05-10T11:38:57;36.60;17.20
34815;DHT22;21030;53.912;15.214;2023-05-10T11:41:28;36.50;16.90
34815;DHT22;21030;53.912;15.214;2023-05-10T11:43:58;37.20;16.90
34815;DHT22;21030;53.912;15.214;2023-05-10T11:46:26;38.30;16.80
34815;DHT22;21030;53.912;15.214;2023-05-10T11:49:00;38.30;16.50
34815;DHT22;21030;53.912;15.214;2023-05-10T11:51:28;38.20;16.40
34815;DHT22;21030;53.912;15.214;2023-05-10T11:53:56;38.10;16.70
34815;DHT22;21030;53.912;15.214;2023-05-10T11:56:24;37.40;17.30
34815;DHT22;21030;53.912;15.214;2023-05-10T11:58:57;36.80;17.30
34815;DHT22;21030;53.912;15.214;2023-05-10T12:01:26;36.80;17.30
34815;DHT22;21030;53.912;15.214;2023-05-10T12:03:56;36.80;16.90
34815;DHT22;21030;53.912;15.214;2023-05-10T12:06:31;37.00;17.10
34815;DHT22;21030;53.912;15.214;2023-05-10T12:09:00;37.70;17.00
34815;DHT22;21030;53.912;15.214;2023-05-10T12:11:32;35.70;16.80
34815;DHT22;21030;53.912;15.214;2023-05-10T12:14:04;36.80;17.20
34815;DHT22;21030;53.912;15.214;2023-05-10T12:16:31;37.70;17.30
34815;DHT22;21030;53.912;15.214;2023-05-10T12:19:00;38.00;16.60
34815;DHT22;21030;53.912;15.214;2023-05-10T12:21:29;38.00;16.30
34815;DHT22;21030;53.912;15.214;2023-05-10T12:24:04;37.30;16.60
34815;DHT22;21030;53.912;15.214;2023-05-10T12:26:32;36.80;16.70
34815;DHT22;21030;53.912;15.214;2023-05-10T12:29:18;38.10;16.60
34815;DHT22;21030;53.912;15.214;2023-05-10T12:31:50;37.70;15.60
34815;DHT22;21030;53.912;15.214;2023-05-10T12:34:27;37.70;15.80
34815;DHT22;21030;53.912;15.214;2023-05-10T12:36:56;39.00;16.10
34815;DHT22;21030;53.912;15.214;2023-05-10T12:39:24;38.30;15.30
34815;DHT22;21030;53.912;15.214;2023-05-10T12:41:52;37.90;15.70
34815;DHT22;21030;53.912;15.214;2023-05-10T12:44:19;36.90;15.70
34815;DHT22;21030;53.912;15.214;2023-05-10T12:46:46;37.30;16.10
34815;DHT22;21030;53.912;15.214;2023-05-10T12:49:13;37.00;15.90
34815;DHT22;21030;53.912;15.214;2023-05-10T12:51:40;38.00;16.50
34815;DHT22;21030;53.912;15.214;2023-05-10T12:54:07;37.90;15.40
34815;DHT22;21030;53.912;15.214;2023-05-10T12:56:35;37.70;15.80
34815;DHT22;21030;53.912;15.214;2023-05-10T12:59:02;38.40;15.70
34815;DHT22;21030;53.912;15.214;2023-05-10T13:01:29;38.70;15.60
34815;DHT22;21030;53.912;15.214;2023-05-10T13:03:56;38.90;15.30
34815;DHT22;21030;53.912;15.214;2023-05-10T13:06:23;38.10;15.10
34815;DHT22;21030;53.912;15.214;2023-05-10T13:08:51;37.10;15.30
34815;DHT22;21030;53.912;15.214;2023-05-10T13:11:18;36.70;16.10
34815;DHT22;21030;53.912;15.214;2023-05-10T13:13:46;36.30;15.90
34815;DHT22;21030;53.912;15.214;2023-05-10T13:16:13;37.30;15.80
34815;DHT22;21030;53.912;15.214;2023-05-10T13:18:41;37.70;15.40
34815;DHT22;21030;53.912;15.214;2023-05-10T13:21:08;36.50;15.20
34815;DHT22;21030;53.912;15.214;2023-05-10T13:23:35;35.90;15.90
34815;DHT22;21030;53.912;15.214;2023-05-10T13:26:02;36.90;16.10
34815;DHT22;21030;53.912;15.214;2023-05-10T13:28:29;36.40;16.10
34815;DHT22;21030;53.912;15.214;2023-05-10T13:30:57;37.40;16.40
34815;DHT22;21030;53.912;15.214;2023-05-10T13:33:24;38.20;15.80
34815;DHT22;21030;53.912;15.214;2023-05-10T13:35:52;38.20;15.50
34815;DHT22;21030;53.912;15.214;2023-05-10T13:38:21;38.60;15.50
34815;DHT22;21030;53.912;15.214;2023-05-10T13:40:48;38.10;15.10
34815;DHT22;21030;53.912;15.214;2023-05-10T13:43:19;38.10;15.50
34815;DHT22;21030;53.912;15.214;2023-05-10T13:45:46;38.20;15.40
34815;DHT22;21030;53.912;15.214;2023-05-10T13:48:13;38.10;15.60
34815;DHT22;21030;53.912;15.214;2023-05-10T13:50:41;38.30;15.40
34815;DHT22;21030;53.912;15.214;2023-05-10T13:53:08;37.40;15.40
34815;DHT22;21030;53.912;15.214;2023-05-10T13:55:35;38.00;16.00
34815;DHT22;21030;53.912;15.214;2023-05-10T13:58:02;37.90;15.80
34815;DHT22;21030;53.912;15.214;2023-05-10T14:00:29;38.60;15.50
34815;DHT22;21030;53.912;15.214;2023-05-10T14:02:57;38.20;15.30
34815;DHT22;21030;53.912;15.214;2023-05-10T14:05:24;39.10;15.80
34815;DHT22;21030;53.912;15.214;2023-05-10T14:07:52;38.10;15.30
34815;DHT22;21030;53.912;15.214;2023-05-10T14:10:20;37.30;15.20
34815;DHT22;21030;53.912;15.214;2023-05-10T14:12:47;36.30;15.80
34815;DHT22;21030;53.912;15.214;2023-05-10T14:15:14;36.70;16.00
34815;DHT22;21030;53.912;15.214;2023-05-10T14:17:42;36.40;16.00
34815;DHT22;21030;53.912;15.214;2023-05-10T14:20:10;36.60;16.30
34815;DHT22;21030;53.912;15.214;2023-05-10T14:22:37;37.80;16.40
34815;DHT22;21030;53.912;15.214;2023-05-10T14:25:07;38.00;15.80
34815;DHT22;21030;53.912;15.214;2023-05-10T14:27:34;38.40;15.50
34815;DHT22;21030;53.912;15.214;2023-05-10T14:30:02;38.10;15.60
34815;DHT22;21030;53.912;15.214;2023-05-10T14:32:29;37.90;15.90
34815;DHT22;21030;53.912;15.214;2023-05-10T14:34:56;36.80;16.10
34815;DHT22;21030;53.912;15.214;2023-05-10T14:37:23;36.40;16.00
34815;DHT22;21030;53.912;15.214;2023-05-10T14:39:50;37.00;16.40
34815;DHT22;21030;53.912;15.214;2023-05-10T14:42:17;37.00;16.20
34815;DHT22;21030;53.912;15.214;2023-05-10T14:44:44;37.00;16.30
34815;DHT22;21030;53.912;15.214;2023-05-10T14:47:13;36.80;16.20
34815;DHT22;21030;53.912;15.214;2023-05-10T14:49:41;36.00;16.30
34815;DHT22;21030;53.912;15.214;2023-05-10T14:52:08;35.90;16.60
34815;DHT22;21030;53.912;15.214;2023-05-10T14:54:38;36.30;16.80
34815;DHT22;21030;53.912;15.214;2023-05-10T14:57:06;37.00;16.60
34815;DHT22;21030;53.912;15.214;2023-05-10T14:59:34;36.80;16.40
34815;DHT22;21030;53.912;15.214;2023-05-10T15:02:01;37.40;16.40
34815;DHT22;21030;53.912;15.214;2023-05-10T15:04:31;38.10;16.40
34815;DHT22;21030;53.912;15.214;2023-05-10T15:06:59;36.70;16.00
34815;DHT22;21030;53.912;15.214;2023-05-10T15:09:26;36.00;16.40
34815;DHT22;21030;53.912;15.214;2023-05-10T15:11:56;35.60;16.70
34815;DHT22;21030;53.912;15.214;2023-05-10T15:14:25;36.40;17.10
34815;DHT22;21030;53.912;15.214;2023-05-10T15:16:52;35.10;16.70
34815;DHT22;21030;53.912;15.214;2023-05-10T15:19:23;35.00;17.30
34815;DHT22;21030;53.912;15.214;2023-05-10T15:21:51;36.00;17.30
34815;DHT22;21030;53.912;15.214;2023-05-10T15:24:18;34.90;16.70
34815;DHT22;21030;53.912;15.214;2023-05-10T15:26:46;34.30;17.60
34815;DHT22;21030;53.912;15.214;2023-05-10T15:29:13;34.80;18.50
34815;DHT22;21030;53.912;15.214;2023-05-10T15:31:51;33.80;18.00
34815;DHT22;21030;53.912;15.214;2023-05-10T15:34:18;33.70;18.10
34815;DHT22;21030;53.912;15.214;2023-05-10T15:36:45;34.00;18.20
34815;DHT22;21030;53.912;15.214;2023-05-10T15:39:13;34.50;18.10
34815;DHT22;21030;53.912;15.214;2023-05-10T15:41:40;34.90;18.20
34815;DHT22;21030;53.912;15.214;2023-05-10T15:44:07;35.20;17.90
34815;DHT22;21030;53.912;15.214;2023-05-10T15:46:34;34.30;17.90
34815;DHT22;21030;53.912;15.214;2023-05-10T15:49:05;33.80;18.40
34815;DHT22;21030;53.912;15.214;2023-05-10T15:51:33;34.50;18.60
34815;DHT22;21030;53.912;15.214;2023-05-10T15:54:02;33.80;18.40
34815;DHT22;21030;53.912;15.214;2023-05-10T15:56:37;33.60;18.70